Time;durP1;ratioP1;P1;durP2;ratioP2;P2;SDS_P1;SDS_P2;PMS_P1;PMS_P2;Temp;Humidity;BMP_temperature;BMP_pressure;BME280_temperature;BME280_humidity;BME280_pressure;Samples;Min_cycle;Max_cycle;Signal;HPM_P1;HPM_P2
2022/07/09 00:01:18;;;;;;;4.00;2.45;;;24.40;62.30;;;;;;6119694;28;80282;-64
2022/07/09 00:04:18;;;;;;;6.32;2.30;;;24.40;62.20;;;;;;6124934;28;80587;-65
2022/07/09 00:07:19;;;;;;;6.80;2.65;;;24.40;62.20;;;;;;6109368;28;80748;-63
2022/07/09 00:10:19;;;;;;;6.10;3.03;;;24.40;62.20;;;;;;6114065;28;81843;-63
2022/07/09 00:13:20;;;;;;;3.85;2.10;;;24.40;62.10;;;;;;6119234;28;83601;-62
2022/07/09 00:16:20;;;;;;;5.95;2.65;;;24.40;62.10;;;;;;6118439;28;80808;-63
2022/07/09 00:19:21;;;;;;;5.43;2.55;;;24.40;62.10;;;;;;6114453;28;80583;-62
2022/07/09 00:22:21;;;;;;;3.55;2.22;;;24.40;62.10;;;;;;6114212;28;80336;-63
2022/07/09 00:25:22;;;;;;;4.15;2.22;;;24.40;61.90;;;;;;6114373;28;81142;-63
2022/07/09 00:28:22;;;;;;;9.68;3.47;;;24.40;62.60;;;;;;6113808;28;80205;-63
2022/07/09 00:31:23;;;;;;;7.93;2.63;;;24.40;61.90;;;;;;6099399;28;80412;-62
2022/07/09 00:34:23;;;;;;;5.05;2.67;;;24.40;61.90;;;;;;6102143;28;80864;-63
2022/07/09 00:37:24;;;;;;;3.30;2.20;;;24.30;61.80;;;;;;6103890;28;80498;-62
2022/07/09 00:40:24;;;;;;;6.85;2.90;;;24.40;61.90;;;;;;6111236;28;80350;-63
2022/07/09 00:43:25;;;;;;;10.98;2.72;;;24.40;61.80;;;;;;6105595;28;81496;-63
2022/07/09 00:46:25;;;;;;;5.40;2.55;;;24.40;61.80;;;;;;6113933;28;80398;-63
2022/07/09 00:49:26;;;;;;;4.93;2.55;;;24.40;61.70;;;;;;6113866;28;80299;-63
2022/07/09 00:52:26;;;;;;;3.00;1.95;;;24.40;61.80;;;;;;6113503;28;80481;-65
2022/07/09 00:55:27;;;;;;;8.07;2.20;;;24.40;61.70;;;;;;6122482;28;80734;-63
2022/07/09 00:58:27;;;;;;;4.38;1.92;;;24.40;61.70;;;;;;6111385;28;80043;-64
2022/07/09 01:01:28;;;;;;;5.95;2.55;;;24.30;62.30;;;;;;6102074;28;81377;-64
2022/07/09 01:04:29;;;;;;;4.80;2.45;;;24.30;61.70;;;;;;6113709;28;80570;-64
2022/07/09 01:07:29;;;;;;;9.82;2.10;;;24.30;61.70;;;;;;6112558;28;80575;-63
2022/07/09 01:10:30;;;;;;;5.35;2.35;;;24.30;61.60;;;;;;6113362;28;80438;-63
2022/07/09 01:13:30;;;;;;;8.60;2.13;;;24.30;61.60;;;;;;6111947;28;81401;-63
2022/07/09 01:16:31;;;;;;;5.60;2.20;;;24.30;61.60;;;;;;6113205;28;80971;-63
2022/07/09 01:19:32;;;;;;;5.90;2.60;;;24.30;61.60;;;;;;6114903;28;81864;-62
2022/07/09 01:22:32;;;;;;;4.78;2.22;;;24.30;61.60;;;;;;6112614;28;81011;-63
2022/07/09 01:25:33;;;;;;;6.53;2.28;;;24.40;61.70;;;;;;6113086;28;80437;-63
2022/07/09 01:28:33;;;;;;;6.78;3.03;;;24.30;61.60;;;;;;6118119;28;81109;-63
2022/07/09 01:31:33;;;;;;;3.47;2.22;;;24.30;61.60;;;;;;6111356;28;83589;-64
2022/07/09 01:34:34;;;;;;;4.50;2.30;;;24.30;61.50;;;;;;6113320;28;80660;-63
2022/07/09 01:37:34;;;;;;;5.07;2.78;;;24.30;61.50;;;;;;6122167;28;80351;-63
2022/07/09 01:40:35;;;;;;;5.45;2.03;;;24.30;61.50;;;;;;6126121;28;81086;-62
2022/07/09 01:43:36;;;;;;;4.40;2.15;;;24.30;61.50;;;;;;6112664;28;80668;-63
2022/07/09 01:46:36;;;;;;;5.85;2.00;;;24.30;61.50;;;;;;6112518;28;80476;-62
2022/07/09 01:49:37;;;;;;;8.27;2.35;;;24.30;61.40;;;;;;6117854;28;80638;-63
2022/07/09 01:52:37;;;;;;;9.40;2.45;;;24.30;61.40;;;;;;6131013;28;80539;-63
2022/07/09 01:55:38;;;;;;;2.97;2.00;;;24.30;61.40;;;;;;6118215;28;82271;-64
2022/07/09 01:58:38;;;;;;;8.07;2.20;;;24.30;61.40;;;;;;6112484;28;81795;-63
2022/07/09 02:01:39;;;;;;;4.75;2.67;;;24.30;61.40;;;;;;6111445;28;81202;-64
2022/07/09 02:04:39;;;;;;;6.78;2.65;;;24.30;61.30;;;;;;6105792;28;80519;-64
2022/07/09 02:07:40;;;;;;;4.35;2.10;;;24.30;61.30;;;;;;6110999;28;80418;-64
2022/07/09 02:10:40;;;;;;;6.13;2.55;;;24.30;61.20;;;;;;6112251;28;80030;-64
2022/07/09 02:13:41;;;;;;;4.55;2.35;;;24.30;61.20;;;;;;6115123;28;80227;-64
2022/07/09 02:16:41;;;;;;;4.40;2.25;;;24.30;61.20;;;;;;6121871;28;80927;-62
2022/07/09 02:19:42;;;;;;;7.75;2.38;;;24.30;61.20;;;;;;6112727;28;80569;-63
2022/07/09 02:22:42;;;;;;;4.60;2.33;;;24.30;61.40;;;;;;6105732;28;80425;-64
2022/07/09 02:25:43;;;;;;;9.02;2.47;;;24.30;61.20;;;;;;6108589;28;80494;-65
2022/07/09 02:28:43;;;;;;;6.10;2.10;;;24.30;61.20;;;;;;6109346;28;80981;-64
2022/07/09 02:31:44;;;;;;;4.75;2.35;;;24.30;61.30;;;;;;6102697;28;81982;-64
2022/07/09 02:34:44;;;;;;;7.03;2.42;;;24.30;61.30;;;;;;6111402;28;80604;-64
2022/07/09 02:37:45;;;;;;;3.10;1.90;;;24.30;61.30;;;;;;6117711;28;80751;-65
2022/07/09 02:40:45;;;;;;;3.78;2.15;;;24.30;61.30;;;;;;6107370;28;83665;-64
2022/07/09 02:43:46;;;;;;;4.30;1.98;;;24.30;61.40;;;;;;6113515;28;80655;-65
2022/07/09 02:46:46;;;;;;;5.18;2.30;;;24.30;61.40;;;;;;6110698;28;80310;-64
2022/07/09 02:49:47;;;;;;;4.65;2.20;;;24.30;61.40;;;;;;6104631;28;80577;-64
2022/07/09 02:52:47;;;;;;;5.35;2.30;;;24.30;61.40;;;;;;6100948;28;81085;-63
2022/07/09 02:55:48;;;;;;;3.10;1.98;;;24.30;62.10;;;;;;6113832;28;80757;-64
2022/07/09 02:58:48;;;;;;;6.28;2.10;;;24.30;61.40;;;;;;6121066;28;80557;-64
2022/07/09 03:01:49;;;;;;;7.13;2.67;;;24.30;61.50;;;;;;6096689;28;80382;-64
2022/07/09 03:04:49;;;;;;;4.18;1.92;;;24.20;61.40;;;;;;6102021;28;80845;-65
2022/07/09 03:07:50;;;;;;;4.70;2.20;;;24.30;61.40;;;;;;6119018;28;80836;-65
2022/07/09 03:10:50;;;;;;;3.10;1.92;;;24.30;61.40;;;;;;6111257;28;81437;-64
2022/07/09 03:13:50;;;;;;;3.28;2.00;;;24.30;61.50;;;;;;6114360;28;80646;-64
2022/07/09 03:16:51;;;;;;;6.65;2.25;;;24.30;61.50;;;;;;6108964;28;82483;-64
2022/07/09 03:19:52;;;;;;;3.90;2.53;;;24.30;61.40;;;;;;6109077;28;81685;-64
2022/07/09 03:22:52;;;;;;;3.88;2.15;;;24.30;61.50;;;;;;6109715;28;81793;-64
2022/07/09 03:25:53;;;;;;;5.18;2.10;;;24.30;61.50;;;;;;6120552;28;80751;-64
2022/07/09 03:28:53;;;;;;;5.75;2.22;;;24.30;61.60;;;;;;6120033;28;80869;-64
2022/07/09 03:31:54;;;;;;;6.68;2.30;;;24.30;61.50;;;;;;6117573;28;81766;-65
2022/07/09 03:34:54;;;;;;;6.00;2.33;;;24.30;61.50;;;;;;6110801;28;80411;-64
2022/07/09 03:37:55;;;;;;;7.72;2.90;;;24.30;61.50;;;;;;6112657;28;80419;-64
2022/07/09 03:40:56;;;;;;;6.18;2.40;;;24.30;61.50;;;;;;6115309;28;80517;-64
2022/07/09 03:43:57;;;;;;;5.05;2.10;;;24.20;61.50;;;;;;6114955;28;80439;-64
2022/07/09 03:46:58;;;;;;;5.13;2.78;;;24.30;61.50;;;;;;6111812;28;80565;-64
2022/07/09 03:49:59;;;;;;;5.88;2.20;;;24.20;61.40;;;;;;6107749;28;80312;-64
2022/07/09 03:52:59;;;;;;;4.15;2.03;;;24.30;61.50;;;;;;6123673;28;81455;-64
2022/07/09 03:56:00;;;;;;;6.25;2.15;;;24.20;61.50;;;;;;6130787;28;80337;-64
2022/07/09 03:59:00;;;;;;;5.47;1.83;;;24.30;61.70;;;;;;6116794;28;80224;-64
2022/07/09 04:02:01;;;;;;;7.25;3.08;;;24.20;61.70;;;;;;6116353;28;80894;-63
2022/07/09 04:05:01;;;;;;;6.85;2.63;;;24.20;61.70;;;;;;6119327;28;82025;-64
2022/07/09 04:08:02;;;;;;;5.68;2.10;;;24.20;61.70;;;;;;6111850;28;80373;-64
2022/07/09 04:11:02;;;;;;;8.57;2.53;;;24.20;61.80;;;;;;6114285;28;81700;-64
2022/07/09 04:14:03;;;;;;;5.68;2.30;;;24.20;61.80;;;;;;6111836;28;80417;-64
2022/07/09 04:17:03;;;;;;;4.55;2.35;;;24.20;61.80;;;;;;6114199;28;80374;-77
2022/07/09 04:20:04;;;;;;;3.38;1.83;;;24.30;61.80;;;;;;6105644;28;80328;-65
2022/07/09 04:23:04;;;;;;;6.63;2.35;;;24.30;61.90;;;;;;6110972;28;81346;-65
2022/07/09 04:26:04;;;;;;;5.40;2.47;;;24.30;61.70;;;;;;6110979;28;81222;-65
2022/07/09 04:29:05;;;;;;;4.55;2.33;;;24.30;61.60;;;;;;6112004;28;80444;-65
2022/07/09 04:32:06;;;;;;;3.80;2.47;;;24.30;61.50;;;;;;6110497;28;81098;-65
2022/07/09 04:35:07;;;;;;;5.43;2.47;;;24.30;61.70;;;;;;6108275;28;80998;-70
2022/07/09 04:38:07;;;;;;;4.10;2.45;;;24.30;61.70;;;;;;6097084;28;81618;-74
2022/07/09 04:41:08;;;;;;;5.95;2.35;;;24.30;61.70;;;;;;6108412;28;80640;-65
2022/07/09 04:44:11;;;;;;;4.90;2.67;;;24.30;61.80;;;;;;6113079;28;80866;-62
2022/07/09 04:47:11;;;;;;;3.88;2.20;;;24.30;61.80;;;;;;6107072;28;80435;-62
2022/07/09 04:50:12;;;;;;;4.65;2.75;;;24.30;61.80;;;;;;6112821;28;81340;-63
2022/07/09 04:53:12;;;;;;;6.55;2.35;;;24.30;61.90;;;;;;6126892;28;80489;-63
2022/07/09 04:56:13;;;;;;;7.68;2.28;;;24.30;61.90;;;;;;6115792;28;80410;-62
2022/07/09 04:59:13;;;;;;;5.10;2.40;;;24.40;62.00;;;;;;6108774;28;80566;-65
2022/07/09 05:02:14;;;;;;;4.15;2.67;;;24.40;62.10;;;;;;6110784;28;80962;-64
2022/07/09 05:05:14;;;;;;;7.20;3.38;;;24.40;62.60;;;;;;6110467;28;81532;-63
2022/07/09 05:08:15;;;;;;;5.28;2.50;;;24.50;63.10;;;;;;6112871;28;87410;-63
2022/07/09 05:11:15;;;;;;;22.10;3.50;;;24.50;63.60;;;;;;6113564;28;80438;-65
2022/07/09 05:14:16;;;;;;;6.38;2.50;;;24.50;64.10;;;;;;6123126;28;80799;-64
2022/07/09 05:17:17;;;;;;;9.02;2.67;;;24.40;63.00;;;;;;6099857;28;80480;-64
2022/07/09 05:20:17;;;;;;;8.35;3.22;;;24.40;63.00;;;;;;6105825;28;80442;-66
2022/07/09 05:23:18;;;;;;;6.88;3.00;;;24.40;62.50;;;;;;6110316;28;81758;-67
2022/07/09 05:26:18;;;;;;;11.68;3.90;;;24.30;62.00;;;;;;6112110;28;82301;-65
2022/07/09 05:29:19;;;;;;;6.97;3.75;;;24.20;61.60;;;;;;6110858;28;81187;-65
2022/07/09 05:32:19;;;;;;;13.65;5.45;;;24.20;61.80;;;;;;6101555;28;81798;-64
2022/07/09 05:35:19;;;;;;;6.72;3.72;;;24.20;61.80;;;;;;6106540;28;80389;-66
2022/07/09 05:38:21;;;;;;;11.93;3.47;;;24.30;61.50;;;;;;6109733;28;86285;-67
2022/07/09 05:41:22;;;;;;;10.55;3.95;;;24.30;61.10;;;;;;6103595;28;81392;-75
2022/07/09 05:44:22;;;;;;;10.35;3.50;;;24.30;61.10;;;;;;6099591;28;81592;-77
2022/07/09 05:47:23;;;;;;;7.38;3.63;;;24.30;60.90;;;;;;6110461;28;80428;-66
2022/07/09 05:50:24;;;;;;;8.30;3.22;;;24.30;60.80;;;;;;6110487;28;81389;-66
2022/07/09 05:53:24;;;;;;;8.90;2.88;;;24.30;60.60;;;;;;6098288;28;81983;-67
2022/07/09 05:56:25;;;;;;;9.88;2.65;;;24.30;60.30;;;;;;6105073;28;80485;-78
2022/07/09 05:59:25;;;;;;;7.72;3.35;;;24.30;60.20;;;;;;6108213;28;81278;-75
2022/07/09 06:02:25;;;;;;;11.38;4.15;;;24.20;60.20;;;;;;6119786;28;81012;-70
2022/07/09 06:05:26;;;;;;;8.20;3.28;;;24.10;60.20;;;;;;6104642;28;80598;-69
2022/07/09 06:08:27;;;;;;;13.80;3.20;;;24.20;59.90;;;;;;6093843;28;83110;-70
2022/07/09 06:11:27;;;;;;;9.98;2.83;;;24.20;60.00;;;;;;6110291;28;81318;-64
2022/07/09 06:14:28;;;;;;;10.93;3.88;;;24.10;59.60;;;;;;6112223;28;81272;-69
2022/07/09 06:17:28;;;;;;;11.68;3.30;;;23.70;60.10;;;;;;6109081;28;83719;-65
2022/07/09 06:20:29;;;;;;;8.27;3.38;;;22.90;62.60;;;;;;6098834;28;80356;-69
2022/07/09 06:23:29;;;;;;;9.55;3.15;;;23.00;62.70;;;;;;6109333;28;81658;-70
2022/07/09 06:26:31;;;;;;;8.55;3.38;;;23.40;62.10;;;;;;6109985;28;80261;-70
2022/07/09 06:29:31;;;;;;;6.70;3.00;;;23.60;61.50;;;;;;6110071;28;81054;-69
2022/07/09 06:32:32;;;;;;;10.00;3.85;;;23.70;60.90;;;;;;6111174;28;80572;-66
2022/07/09 06:35:32;;;;;;;8.63;3.00;;;23.30;61.20;;;;;;6111239;28;81714;-73
2022/07/09 06:39:44;;;;;;;7.03;3.30;;;23.40;61.30;;;;;;6108124;28;80467;-67
2022/07/09 06:41:53;;;;;;;8.95;3.45;;;22.80;62.10;;;;;;6108541;28;81470;-66
2022/07/09 06:44:53;;;;;;;9.55;3.28;;;23.10;61.90;;;;;;6101447;28;80181;-74
2022/07/09 06:47:54;;;;;;;6.70;2.83;;;23.20;62.20;;;;;;6108914;28;80651;-67
2022/07/09 06:50:54;;;;;;;11.88;3.38;;;23.20;61.90;;;;;;6098907;28;80519;-64
2022/07/09 06:53:55;;;;;;;15.32;3.78;;;23.30;62.00;;;;;;6109801;28;80407;-66
2022/07/09 06:56:58;;;;;;;14.07;3.78;;;23.30;61.90;;;;;;6104334;28;84457;-65
2022/07/09 06:59:59;;;;;;;8.25;3.28;;;23.50;62.00;;;;;;6099855;28;80437;-64
2022/07/09 07:02:59;;;;;;;13.25;3.55;;;23.40;62.00;;;;;;6099949;28;80705;-65
2022/07/09 07:06:00;;;;;;;8.13;3.25;;;23.50;62.00;;;;;;6100384;28;80352;-65
2022/07/09 07:09:02;;;;;;;8.00;3.22;;;23.50;61.70;;;;;;6110464;28;81617;-66
2022/07/09 07:12:03;;;;;;;7.80;3.05;;;23.60;61.90;;;;;;6109313;28;81220;-65
2022/07/09 07:15:03;;;;;;;13.30;3.92;;;23.50;62.00;;;;;;6098113;28;82043;-66
2022/07/09 07:18:03;;;;;;;10.30;3.83;;;23.30;62.30;;;;;;6097590;28;81487;-66
2022/07/09 07:21:04;;;;;;;6.53;3.13;;;23.40;62.00;;;;;;6091086;28;80571;-66
2022/07/09 07:24:04;;;;;;;8.15;3.05;;;23.40;61.70;;;;;;6093124;28;80514;-66
2022/07/09 07:27:05;;;;;;;10.10;3.30;;;23.40;61.70;;;;;;6096496;28;80404;-66
2022/07/09 07:30:05;;;;;;;8.80;3.05;;;23.40;61.20;;;;;;6098029;28;81123;-67
2022/07/09 07:33:06;;;;;;;8.63;2.95;;;23.50;61.60;;;;;;6092352;28;80433;-66
2022/07/09 07:36:06;;;;;;;8.35;2.85;;;23.60;61.60;;;;;;6096373;28;81364;-67
2022/07/09 07:39:07;;;;;;;15.57;3.15;;;23.80;61.80;;;;;;6091841;28;80814;-64
2022/07/09 07:42:07;;;;;;;9.52;3.08;;;23.90;61.50;;;;;;6095336;28;81631;-67
2022/07/09 07:45:08;;;;;;;9.77;3.25;;;24.00;61.70;;;;;;6092232;28;80677;-66
2022/07/09 07:48:08;;;;;;;6.57;3.10;;;24.10;61.50;;;;;;6096034;28;80375;-66
2022/07/09 07:51:09;;;;;;;9.13;2.60;;;24.20;61.30;;;;;;6095197;28;81524;-66
2022/07/09 07:54:09;;;;;;;5.68;3.10;;;24.20;61.20;;;;;;6098750;28;81741;-66
2022/07/09 07:57:10;;;;;;;5.57;2.65;;;24.30;61.10;;;;;;6098537;28;80615;-66
2022/07/09 08:00:10;;;;;;;6.03;2.47;;;24.30;61.00;;;;;;6096054;28;80395;-68
2022/07/09 08:03:14;;;;;;;6.10;2.60;;;24.40;61.00;;;;;;6109696;28;80604;-66
2022/07/09 08:06:14;;;;;;;8.40;3.15;;;24.40;60.90;;;;;;6109451;28;81462;-66
2022/07/09 08:09:15;;;;;;;8.70;3.40;;;24.40;61.00;;;;;;6107886;28;80897;-66
2022/07/09 08:12:15;;;;;;;5.78;2.67;;;24.40;61.20;;;;;;6105068;28;81164;-65
2022/07/09 08:15:16;;;;;;;6.50;2.42;;;24.50;60.80;;;;;;6111082;28;80370;-66
2022/07/09 08:18:16;;;;;;;8.20;3.35;;;24.50;61.00;;;;;;6111125;28;85045;-66
2022/07/09 08:21:17;;;;;;;7.03;3.28;;;24.50;61.10;;;;;;6114028;28;80902;-66
2022/07/09 08:24:17;;;;;;;4.28;2.63;;;24.50;61.30;;;;;;6115482;28;80175;-66
2022/07/09 08:27:18;;;;;;;4.03;2.45;;;24.50;60.80;;;;;;6103046;28;80606;-65
2022/07/09 08:30:18;;;;;;;6.10;3.25;;;24.60;61.10;;;;;;6101497;28;81170;-67
2022/07/09 08:33:19;;;;;;;6.50;2.58;;;24.60;60.90;;;;;;6105331;28;81746;-67
2022/07/09 08:36:19;;;;;;;8.70;3.22;;;24.60;60.90;;;;;;6102253;28;80693;-67
2022/07/09 08:39:20;;;;;;;5.72;2.70;;;24.60;60.80;;;;;;6106978;28;81568;-66
2022/07/09 08:42:20;;;;;;;4.82;2.75;;;24.60;61.20;;;;;;6109222;28;80715;-66
2022/07/09 08:45:21;;;;;;;5.25;2.63;;;24.60;60.50;;;;;;6104586;28;80372;-65
2022/07/09 08:48:21;;;;;;;5.15;2.58;;;24.70;60.40;;;;;;6111922;28;81256;-66
2022/07/09 08:51:22;;;;;;;5.07;2.22;;;24.70;60.60;;;;;;6113565;28;81181;-64
2022/07/09 08:54:22;;;;;;;6.15;2.33;;;24.70;59.80;;;;;;6117862;28;82048;-64
2022/07/09 08:57:23;;;;;;;4.00;2.40;;;24.70;60.00;;;;;;6095373;28;80380;-65
2022/07/09 09:00:23;;;;;;;6.50;2.50;;;24.80;59.70;;;;;;6101154;28;82048;-66
2022/07/09 09:03:24;;;;;;;4.78;2.17;;;24.60;58.80;;;;;;6107119;28;80646;-65
2022/07/09 09:06:24;;;;;;;5.78;3.00;;;24.60;58.20;;;;;;6110761;28;80258;-63
2022/07/09 09:09:25;;;;;;;4.00;2.42;;;24.30;58.20;;;;;;6110917;28;80904;-64
2022/07/09 09:12:26;;;;;;;9.25;2.80;;;24.30;58.40;;;;;;6110281;28;81529;-64
2022/07/09 09:15:26;;;;;;;5.15;2.55;;;24.40;58.50;;;;;;6112855;28;80474;-65
2022/07/09 09:18:27;;;;;;;4.40;2.05;;;24.40;58.90;;;;;;6099546;28;82083;-64
2022/07/09 09:21:28;;;;;;;8.20;3.13;;;24.40;58.40;;;;;;6110550;28;81492;-64
2022/07/09 09:24:29;;;;;;;6.40;2.53;;;24.40;58.30;;;;;;6112858;28;79999;-65
2022/07/09 09:27:30;;;;;;;7.00;2.92;;;24.30;57.80;;;;;;6110544;28;83576;-64
2022/07/09 09:30:31;;;;;;;4.75;2.17;;;24.20;58.00;;;;;;6110761;28;81191;-64
2022/07/09 09:33:31;;;;;;;4.70;2.22;;;24.00;58.70;;;;;;6106606;28;81470;-64
2022/07/09 09:36:32;;;;;;;3.80;2.50;;;24.10;59.70;;;;;;6107860;28;80937;-64
2022/07/09 09:39:32;;;;;;;8.73;2.88;;;24.20;59.20;;;;;;6093614;28;81461;-65
2022/07/09 09:42:33;;;;;;;11.95;2.72;;;24.30;59.10;;;;;;6097033;28;80654;-65
2022/07/09 09:45:33;;;;;;;4.38;2.17;;;24.30;58.90;;;;;;6097309;28;80503;-64
2022/07/09 09:48:34;;;;;;;11.45;2.90;;;24.00;58.20;;;;;;6097950;28;80647;-65
2022/07/09 09:51:34;;;;;;;5.00;2.42;;;24.10;58.70;;;;;;6101869;28;80446;-64
2022/07/09 09:54:34;;;;;;;7.35;3.35;;;24.30;59.40;;;;;;6096222;28;80300;-64
2022/07/09 09:57:35;;;;;;;6.75;2.97;;;24.40;59.00;;;;;;6105245;28;80916;-65
2022/07/09 10:00:35;;;;;;;5.93;2.40;;;24.40;58.70;;;;;;6103722;28;81783;-67
2022/07/09 10:03:36;;;;;;;7.60;2.78;;;24.50;57.90;;;;;;6094575;28;82076;-65
2022/07/09 10:06:36;;;;;;;8.82;2.97;;;24.30;58.40;;;;;;6112324;28;80641;-64
2022/07/09 10:09:37;;;;;;;4.63;2.65;;;24.20;57.70;;;;;;6105746;28;83905;-64
2022/07/09 10:12:38;;;;;;;6.70;2.55;;;24.20;59.40;;;;;;6106857;28;80482;-64
2022/07/09 10:15:38;;;;;;;6.80;2.50;;;24.50;59.30;;;;;;6114682;28;80323;-66
2022/07/09 10:18:39;;;;;;;4.07;2.55;;;24.60;59.20;;;;;;6106194;28;81027;-66
2022/07/09 10:21:40;;;;;;;6.32;1.88;;;24.60;58.90;;;;;;6115442;28;80484;-67
2022/07/09 10:24:40;;;;;;;6.35;2.25;;;24.70;58.80;;;;;;6100393;28;81402;-72
2022/07/09 10:27:41;;;;;;;3.88;2.30;;;24.70;57.90;;;;;;6102309;28;80633;-66
2022/07/09 10:30:41;;;;;;;4.45;2.00;;;24.60;57.90;;;;;;6104460;28;81634;-66
2022/07/09 10:33:42;;;;;;;4.25;2.03;;;24.60;57.70;;;;;;6109975;28;83729;-66
2022/07/09 10:36:43;;;;;;;3.25;1.85;;;24.60;57.50;;;;;;6111408;28;80839;-65
2022/07/09 10:39:43;;;;;;;2.00;1.67;;;24.60;56.20;;;;;;6113527;28;80407;-74
2022/07/09 10:42:44;;;;;;;2.90;1.95;;;24.60;56.10;;;;;;6115255;28;82186;-63
2022/07/09 10:45:44;;;;;;;14.60;2.75;;;24.50;55.60;;;;;;6104944;28;80482;-67
2022/07/09 10:48:45;;;;;;;6.53;2.40;;;24.60;56.60;;;;;;6101649;28;80806;-66
2022/07/09 10:51:45;;;;;;;5.90;2.35;;;24.70;56.40;;;;;;6099297;28;80544;-66
2022/07/09 10:54:46;;;;;;;3.13;1.83;;;24.70;56.30;;;;;;6102312;28;80758;-67
2022/07/09 10:57:46;;;;;;;7.32;2.65;;;24.80;56.00;;;;;;6101875;28;80745;-67
2022/07/09 11:00:47;;;;;;;8.05;2.25;;;24.60;55.30;;;;;;6109676;28;80746;-66
2022/07/09 11:03:47;;;;;;;4.47;1.77;;;24.50;54.80;;;;;;6108155;28;80953;-67
2022/07/09 11:06:48;;;;;;;4.45;1.98;;;24.10;55.50;;;;;;6099584;28;80904;-67
2022/07/09 11:09:48;;;;;;;6.63;2.28;;;24.30;55.20;;;;;;6110104;28;81247;-66
2022/07/09 11:12:49;;;;;;;4.20;2.55;;;24.10;54.90;;;;;;6110224;28;82424;-66
2022/07/09 11:15:49;;;;;;;7.25;2.92;;;24.00;55.40;;;;;;6109726;28;81739;-66
2022/07/09 11:18:50;;;;;;;3.00;2.20;;;24.10;55.70;;;;;;6103041;28;80704;-66
2022/07/09 11:21:51;;;;;;;7.22;2.40;;;24.30;55.30;;;;;;6107975;28;81284;-68
2022/07/09 11:24:51;;;;;;;3.10;1.60;;;24.30;54.80;;;;;;6106665;28;81435;-69
2022/07/09 11:27:52;;;;;;;5.35;1.90;;;24.50;55.20;;;;;;6105879;28;82689;-66
2022/07/09 11:30:52;;;;;;;3.38;2.15;;;24.40;54.70;;;;;;6105404;28;81815;-67
2022/07/09 11:34:11;;;;;;;2.15;1.55;;;24.40;54.70;;;;;;6110608;28;80909;-65
2022/07/09 11:37:11;;;;;;;4.20;2.30;;;24.30;53.90;;;;;;6108647;28;82992;-65
2022/07/09 11:40:12;;;;;;;5.78;2.13;;;24.30;53.50;;;;;;6106833;28;80404;-65
2022/07/09 11:43:13;;;;;;;2.47;1.63;;;24.20;54.10;;;;;;6106368;28;80502;-67
2022/07/09 11:46:13;;;;;;;4.18;1.88;;;24.40;54.20;;;;;;6110383;28;80197;-67
2022/07/09 11:49:14;;;;;;;2.33;1.88;;;24.40;53.40;;;;;;6103234;28;81801;-67
2022/07/09 11:52:14;;;;;;;6.32;2.75;;;24.60;53.80;;;;;;6105886;28;80559;-67
2022/07/09 11:55:15;;;;;;;4.50;2.03;;;24.40;52.90;;;;;;6117969;28;80709;-67
2022/07/09 11:58:15;;;;;;;5.00;1.90;;;24.50;53.40;;;;;;6107353;28;80815;-67
2022/07/09 12:01:16;;;;;;;5.30;1.55;;;24.60;53.10;;;;;;6107041;28;80627;-66
2022/07/09 12:04:16;;;;;;;3.90;2.00;;;24.80;53.30;;;;;;6103937;28;80583;-67
2022/07/09 12:07:17;;;;;;;4.68;2.20;;;24.90;54.30;;;;;;6103629;28;81442;-67
2022/07/09 12:10:17;;;;;;;5.22;1.85;;;24.90;52.90;;;;;;6110443;28;80594;-66
2022/07/09 12:13:18;;;;;;;4.43;1.80;;;24.90;54.20;;;;;;6113730;28;80440;-68
2022/07/09 12:16:18;;;;;;;3.70;1.70;;;24.80;52.70;;;;;;6104380;28;82037;-66
2022/07/09 12:19:19;;;;;;;3.38;1.75;;;24.80;52.10;;;;;;6109051;28;80674;-64
2022/07/09 12:22:19;;;;;;;3.70;2.08;;;24.80;52.30;;;;;;6110664;28;80418;-64
2022/07/09 12:25:20;;;;;;;5.93;2.17;;;24.90;53.70;;;;;;6104742;28;81220;-64
2022/07/09 12:28:21;;;;;;;4.03;2.25;;;24.80;52.00;;;;;;6112665;28;81052;-64
2022/07/09 12:31:22;;;;;;;4.40;2.60;;;24.70;52.30;;;;;;6109512;28;80678;-65
2022/07/09 12:34:23;;;;;;;5.78;2.58;;;24.80;52.80;;;;;;6106706;28;87228;-66
2022/07/09 12:37:24;;;;;;;4.28;2.40;;;24.70;52.70;;;;;;6112541;28;80099;-68
2022/07/09 12:40:24;;;;;;;6.50;2.20;;;24.70;53.00;;;;;;6105148;28;81239;-68
2022/07/09 12:43:25;;;;;;;3.72;2.00;;;24.60;52.80;;;;;;6111956;28;80198;-68
2022/07/09 12:46:25;;;;;;;4.15;2.00;;;24.40;52.90;;;;;;6094401;28;81598;-66
2022/07/09 12:49:25;;;;;;;1.80;1.70;;;24.60;53.20;;;;;;6113536;28;81323;-67
2022/07/09 12:52:26;;;;;;;3.47;1.95;;;24.70;52.90;;;;;;6111991;28;81878;-68
2022/07/09 12:55:27;;;;;;;3.97;2.05;;;24.60;52.60;;;;;;6109754;28;80681;-68
2022/07/09 12:58:27;;;;;;;3.65;2.20;;;24.80;52.40;;;;;;6111760;28;81488;-67
2022/07/09 13:01:28;;;;;;;3.03;1.88;;;24.80;52.50;;;;;;6113600;28;81752;-71
2022/07/09 13:04:28;;;;;;;4.22;1.80;;;24.90;52.40;;;;;;6113742;28;80378;-71
2022/07/09 13:07:29;;;;;;;5.35;2.00;;;25.00;51.80;;;;;;6111159;28;83698;-68
2022/07/09 13:10:30;;;;;;;2.13;1.48;;;25.10;51.80;;;;;;6122260;28;81525;-68
2022/07/09 13:13:30;;;;;;;4.82;1.88;;;25.10;51.50;;;;;;6120064;28;80369;-69
2022/07/09 13:16:31;;;;;;;2.40;1.63;;;24.90;51.30;;;;;;6113323;28;80399;-69
2022/07/09 13:19:31;;;;;;;2.28;1.50;;;24.90;50.80;;;;;;6113561;28;80414;-75
2022/07/09 13:22:32;;;;;;;2.10;1.40;;;24.80;50.70;;;;;;6113887;28;80547;-78
2022/07/09 13:25:32;;;;;;;4.28;1.60;;;24.80;51.40;;;;;;6104608;28;80933;-70
2022/07/09 13:28:33;;;;;;;3.15;1.40;;;25.00;51.50;;;;;;6105676;28;82355;-71
2022/07/09 13:31:33;;;;;;;4.70;2.15;;;25.10;51.80;;;;;;6097527;28;81594;-71
2022/07/09 13:34:34;;;;;;;3.70;1.88;;;25.10;51.30;;;;;;6086841;28;80762;-69
2022/07/09 13:37:34;;;;;;;3.50;1.58;;;25.10;51.60;;;;;;6089406;28;81192;-70
2022/07/09 13:40:35;;;;;;;3.33;1.63;;;25.20;51.90;;;;;;6112324;28;80308;-68
2022/07/09 13:43:37;;;;;;;6.50;1.77;;;25.20;51.80;;;;;;6116881;28;80758;-70
2022/07/09 13:46:37;;;;;;;5.75;1.77;;;25.20;51.30;;;;;;6096711;28;81485;-69
2022/07/09 13:49:37;;;;;;;4.15;2.00;;;25.30;51.80;;;;;;6093823;28;80686;-68
2022/07/09 13:52:38;;;;;;;6.00;3.10;;;25.20;51.60;;;;;;6110887;28;81556;-69
2022/07/09 13:55:38;;;;;;;6.15;2.65;;;25.20;51.10;;;;;;6103477;28;83501;-68
2022/07/09 13:58:39;;;;;;;4.78;2.47;;;25.30;52.20;;;;;;6112645;28;80295;-70
2022/07/09 14:01:39;;;;;;;5.75;2.00;;;25.30;51.80;;;;;;6106990;28;81986;-69
2022/07/09 14:04:40;;;;;;;12.50;2.78;;;25.40;52.50;;;;;;6117220;28;81033;-68
2022/07/09 14:07:40;;;;;;;4.68;2.20;;;25.40;52.50;;;;;;6104896;28;80409;-68
2022/07/09 14:10:41;;;;;;;3.78;2.25;;;25.40;52.00;;;;;;6094000;28;80476;-67
2022/07/09 14:13:43;;;;;;;2.83;1.80;;;25.30;51.40;;;;;;6094795;28;81817;-66
2022/07/09 14:16:43;;;;;;;6.15;2.22;;;25.30;51.00;;;;;;6097505;28;81101;-68
2022/07/09 14:19:44;;;;;;;4.13;2.00;;;25.40;51.00;;;;;;6102677;28;80613;-68
2022/07/09 14:22:44;;;;;;;3.28;2.08;;;25.40;50.70;;;;;;6091388;28;80522;-66
2022/07/09 14:25:45;;;;;;;3.90;1.90;;;25.40;50.70;;;;;;6093790;28;80572;-69
2022/07/09 14:28:45;;;;;;;9.32;2.10;;;25.40;51.10;;;;;;6101398;28;81828;-69
2022/07/09 14:31:46;;;;;;;4.80;1.90;;;25.40;51.10;;;;;;6105150;28;82644;-69
2022/07/09 14:34:46;;;;;;;3.25;2.03;;;25.40;51.20;;;;;;6110638;28;80944;-68
2022/07/09 14:37:47;;;;;;;5.30;2.33;;;25.40;51.20;;;;;;6105405;28;83515;-71
2022/07/09 14:40:48;;;;;;;3.70;1.63;;;25.40;49.90;;;;;;6111295;28;80396;-68
2022/07/09 14:43:48;;;;;;;2.65;1.90;;;25.40;49.10;;;;;;6118865;28;87707;-69
2022/07/09 14:46:49;;;;;;;3.40;1.95;;;25.40;47.80;;;;;;6104757;28;81803;-65
2022/07/09 14:49:49;;;;;;;6.07;2.17;;;25.30;47.40;;;;;;6100603;28;81290;-66
2022/07/09 14:52:50;;;;;;;3.25;1.95;;;25.30;46.00;;;;;;6107415;28;81100;-66
2022/07/09 14:55:50;;;;;;;3.90;1.73;;;25.20;44.20;;;;;;6103591;28;81629;-67
2022/07/09 14:58:51;;;;;;;4.07;1.50;;;25.20;44.60;;;;;;6102973;28;80483;-70
2022/07/09 15:01:51;;;;;;;2.70;1.60;;;25.20;45.70;;;;;;6109290;28;81363;-76
2022/07/09 15:04:52;;;;;;;5.07;1.65;;;25.20;45.50;;;;;;6104798;28;81245;-74
2022/07/09 15:07:52;;;;;;;2.85;1.83;;;25.20;45.80;;;;;;6107552;28;81555;-67
2022/07/09 15:10:53;;;;;;;3.85;2.17;;;25.10;46.00;;;;;;6110858;28;80656;-67
2022/07/09 15:13:54;;;;;;;2.35;1.60;;;25.10;45.80;;;;;;6108759;28;80487;-64
2022/07/09 15:16:55;;;;;;;2.25;2.03;;;25.10;45.40;;;;;;6111038;28;80336;-65
2022/07/09 15:19:55;;;;;;;2.85;2.00;;;25.10;44.90;;;;;;6102812;28;80318;-65
2022/07/09 15:22:56;;;;;;;2.35;1.77;;;25.10;43.40;;;;;;6110345;28;80416;-78
2022/07/09 15:25:56;;;;;;;5.95;2.42;;;25.10;43.70;;;;;;6108920;28;81758;-66
2022/07/09 15:28:57;;;;;;;4.30;1.80;;;25.20;43.90;;;;;;6099112;28;81366;-66
2022/07/09 15:31:57;;;;;;;2.03;1.83;;;25.10;43.20;;;;;;6107626;28;80652;-67
2022/07/09 15:34:58;;;;;;;3.40;1.90;;;25.10;43.20;;;;;;6107888;28;80806;-67
2022/07/09 15:37:58;;;;;;;6.28;2.13;;;25.10;43.00;;;;;;6091937;28;80835;-68